sensor_id;sensor_type;location;lat;lon;timestamp;pressure;altitude;pressure_sealevel;temperature;humidity
75923;BME280;64602;47.542;19.090;2023-07-13T05:39:56;100303.41;;;21.19;86.32
75923;BME280;64602;47.542;19.090;2023-07-13T05:44:59;100293.31;;;21.14;85.86
75923;BME280;64602;47.542;19.090;2023-07-13T05:50:01;100296.25;;;21.35;86.13
75923;BME280;64602;47.542;19.090;2023-07-13T05:55:07;100279.06;;;20.86;87.10
75923;BME280;64602;47.542;19.090;2023-07-13T06:00:10;100282.22;;;20.44;88.07
75923;BME280;64602;47.542;19.090;2023-07-13T06:05:12;100265.59;;;20.18;89.08
75923;BME280;64602;47.542;19.090;2023-07-13T06:10:14;100273.38;;;20.08;89.77
75923;BME280;64602;47.542;19.090;2023-07-13T06:15:17;100236.00;;;19.84;90.94
75923;BME280;64602;47.542;19.090;2023-07-13T06:20:20;100177.00;;;19.76;91.54
75923;BME280;64602;47.542;19.090;2023-07-13T06:25:22;99947.34;;;19.69;92.90
75923;BME280;64602;47.542;19.090;2023-07-13T06:30:24;99962.41;;;19.71;92.70
75923;BME280;64602;47.542;19.090;2023-07-13T06:35:26;99920.28;;;19.79;91.46
75923;BME280;64602;47.542;19.090;2023-07-13T06:40:28;99890.12;;;20.00;92.17
75923;BME280;64602;47.542;19.090;2023-07-13T06:45:39;99933.50;;;20.21;91.21
75923;BME280;64602;47.542;19.090;2023-07-13T06:50:42;99925.47;;;20.45;91.03
75923;BME280;64602;47.542;19.090;2023-07-13T06:55:46;99926.72;;;20.65;90.09
75923;BME280;64602;47.542;19.090;2023-07-13T07:00:51;99901.28;;;20.89;89.81
75923;BME280;64602;47.542;19.090;2023-07-13T07:05:53;99926.47;;;21.18;88.22
75923;BME280;64602;47.542;19.090;2023-07-13T07:11:02;99912.31;;;21.49;86.92
75923;BME280;64602;47.542;19.090;2023-07-13T07:16:04;99937.12;;;21.91;84.91
75923;BME280;64602;47.542;19.090;2023-07-13T07:21:06;99993.31;;;22.49;81.92
75923;BME280;64602;47.542;19.090;2023-07-13T07:26:08;100080.50;;;22.68;80.49
75923;BME280;64602;47.542;19.090;2023-07-13T07:31:12;100090.44;;;22.81;78.98
75923;BME280;64602;47.542;19.090;2023-07-13T07:36:17;100111.09;;;22.96;78.72
75923;BME280;64602;47.542;19.090;2023-07-13T07:41:22;100118.09;;;22.81;78.46
75923;BME280;64602;47.542;19.090;2023-07-13T07:46:27;100123.53;;;22.56;78.79
75923;BME280;64602;47.542;19.090;2023-07-13T07:51:30;100137.25;;;22.32;78.87
75923;BME280;64602;47.542;19.090;2023-07-13T07:56:32;100151.03;;;22.40;78.87
75923;BME280;64602;47.542;19.090;2023-07-13T08:01:37;100142.44;;;22.54;78.36
75923;BME280;64602;47.542;19.090;2023-07-13T08:06:59;100144.34;;;22.62;78.22
75923;BME280;64602;47.542;19.090;2023-07-13T08:12:05;100146.44;;;22.99;76.62
75923;BME280;64602;47.542;19.090;2023-07-13T08:17:10;100136.00;;;23.17;76.05
75923;BME280;64602;47.542;19.090;2023-07-13T08:22:12;100136.00;;;23.29;75.56
75923;BME280;64602;47.542;19.090;2023-07-13T08:27:14;100142.97;;;23.48;73.98
75923;BME280;64602;47.542;19.090;2023-07-13T08:32:18;100157.72;;;23.52;73.94
75923;BME280;64602;47.542;19.090;2023-07-13T08:37:20;100152.78;;;23.70;73.50
75923;BME280;64602;47.542;19.090;2023-07-13T08:42:27;100156.50;;;23.98;73.09
75923;BME280;64602;47.542;19.090;2023-07-13T08:47:35;100143.62;;;24.18;71.23
75923;BME280;64602;47.542;19.090;2023-07-13T08:52:42;100141.16;;;24.29;70.51
75923;BME280;64602;47.542;19.090;2023-07-13T08:57:52;100160.03;;;24.92;69.88
75923;BME280;64602;47.542;19.090;2023-07-13T09:02:59;100159.81;;;24.69;69.15
75923;BME280;64602;47.542;19.090;2023-07-13T09:08:14;100148.97;;;24.64;69.56
75923;BME280;64602;47.542;19.090;2023-07-13T09:13:44;100153.97;;;24.46;69.96
75923;BME280;64602;47.542;19.090;2023-07-13T09:18:55;100160.53;;;24.53;68.81
75923;BME280;64602;47.542;19.090;2023-07-13T09:29:29;100153.22;;;25.81;64.78
75923;BME280;64602;47.542;19.090;2023-07-13T09:34:33;100150.28;;;25.58;65.24
75923;BME280;64602;47.542;19.090;2023-07-13T09:39:39;100162.84;;;25.52;65.36
75923;BME280;64602;47.542;19.090;2023-07-13T09:44:52;100169.47;;;25.47;64.58
75923;BME280;64602;47.542;19.090;2023-07-13T09:50:15;100164.00;;;25.51;63.97
75923;BME280;64602;47.542;19.090;2023-07-13T09:55:31;100170.88;;;25.41;63.62
75923;BME280;64602;47.542;19.090;2023-07-13T10:00:36;100187.84;;;25.52;63.71
75923;BME280;64602;47.542;19.090;2023-07-13T10:05:40;100183.72;;;25.62;64.98
75923;BME280;64602;47.542;19.090;2023-07-13T10:10:42;100169.81;;;26.29;63.50
75923;BME280;64602;47.542;19.090;2023-07-13T10:15:45;100170.88;;;26.98;60.85
75923;BME280;64602;47.542;19.090;2023-07-13T10:20:47;100176.41;;;27.37;59.24
75923;BME280;64602;47.542;19.090;2023-07-13T10:25:52;100172.87;;;27.63;58.17
75923;BME280;64602;47.542;19.090;2023-07-13T10:30:56;100179.72;;;27.92;57.35
75923;BME280;64602;47.542;19.090;2023-07-13T10:36:13;100177.69;;;28.16;56.98
75923;BME280;64602;47.542;19.090;2023-07-13T10:41:20;100197.91;;;28.36;56.35
75923;BME280;64602;47.542;19.090;2023-07-13T10:46:26;100195.72;;;28.79;55.31
75923;BME280;64602;47.542;19.090;2023-07-13T10:51:32;100181.41;;;28.84;54.17
75923;BME280;64602;47.542;19.090;2023-07-13T10:56:35;100188.59;;;28.85;53.47
75923;BME280;64602;47.542;19.090;2023-07-13T11:01:58;100195.31;;;29.14;51.04
75923;BME280;64602;47.542;19.090;2023-07-13T11:07:19;100171.25;;;29.44;51.90
75923;BME280;64602;47.542;19.090;2023-07-13T11:27:51;100181.91;;;29.72;49.25
75923;BME280;64602;47.542;19.090;2023-07-13T11:33:14;100173.00;;;29.63;49.01
75923;BME280;64602;47.542;19.090;2023-07-13T11:38:23;100171.59;;;29.35;47.75
75923;BME280;64602;47.542;19.090;2023-07-13T11:43:29;100172.94;;;29.55;47.79
75923;BME280;64602;47.542;19.090;2023-07-13T11:48:31;100168.78;;;29.83;47.34
75923;BME280;64602;47.542;19.090;2023-07-13T11:53:40;100164.56;;;30.07;46.94
75923;BME280;64602;47.542;19.090;2023-07-13T11:58:43;100158.09;;;29.96;46.25
75923;BME280;64602;47.542;19.090;2023-07-13T12:03:46;100171.03;;;30.22;46.46
75923;BME280;64602;47.542;19.090;2023-07-13T12:08:48;100167.75;;;30.06;45.83
75923;BME280;64602;47.542;19.090;2023-07-13T12:13:50;100169.94;;;29.71;47.27
75923;BME280;64602;47.542;19.090;2023-07-13T12:18:53;100163.97;;;29.76;47.88
75923;BME280;64602;47.542;19.090;2023-07-13T12:23:56;100145.13;;;30.29;46.36
75923;BME280;64602;47.542;19.090;2023-07-13T12:29:01;100150.22;;;30.19;45.39
75923;BME280;64602;47.542;19.090;2023-07-13T12:39:18;100147.59;;;30.48;45.55
75923;BME280;64602;47.542;19.090;2023-07-13T12:44:31;100163.22;;;30.53;44.73
75923;BME280;64602;47.542;19.090;2023-07-13T12:49:34;100125.63;;;30.50;45.06
75923;BME280;64602;47.542;19.090;2023-07-13T12:54:38;100146.56;;;30.92;44.77
75923;BME280;64602;47.542;19.090;2023-07-13T12:59:44;100131.72;;;30.81;43.92
75923;BME280;64602;47.542;19.090;2023-07-13T13:04:47;100141.03;;;31.17;43.16
75923;BME280;64602;47.542;19.090;2023-07-13T13:09:50;100126.62;;;31.47;43.12
75923;BME280;64602;47.542;19.090;2023-07-13T13:14:52;100147.03;;;32.02;42.04
75923;BME280;64602;47.542;19.090;2023-07-13T13:19:55;100135.03;;;31.98;42.33
75923;BME280;64602;47.542;19.090;2023-07-13T13:24:57;100131.22;;;32.62;40.88
75923;BME280;64602;47.542;19.090;2023-07-13T13:30:00;100126.47;;;32.37;40.73
75923;BME280;64602;47.542;19.090;2023-07-13T13:35:02;100121.00;;;32.93;39.80
75923;BME280;64602;47.542;19.090;2023-07-13T13:45:15;100124.66;;;33.46;38.34
75923;BME280;64602;47.542;19.090;2023-07-13T13:50:21;100116.28;;;33.38;38.74
75923;BME280;64602;47.542;19.090;2023-07-13T13:55:26;100117.28;;;33.14;39.04
75923;BME280;64602;47.542;19.090;2023-07-13T14:00:29;100128.56;;;33.07;39.07
75923;BME280;64602;47.542;19.090;2023-07-13T14:05:32;100118.66;;;32.81;39.46
75923;BME280;64602;47.542;19.090;2023-07-13T14:10:34;100121.87;;;32.83;39.89
75923;BME280;64602;47.542;19.090;2023-07-13T14:15:36;100117.00;;;31.81;40.44
75923;BME280;64602;47.542;19.090;2023-07-13T14:20:38;100122.59;;;31.70;41.51
75923;BME280;64602;47.542;19.090;2023-07-13T14:25:41;100124.56;;;30.91;42.95
75923;BME280;64602;47.542;19.090;2023-07-13T14:30:43;100120.38;;;30.41;43.56
75923;BME280;64602;47.542;19.090;2023-07-13T14:35:46;100121.81;;;30.10;44.51
75923;BME280;64602;47.542;19.090;2023-07-13T14:40:50;100114.41;;;29.80;45.64
75923;BME280;64602;47.542;19.090;2023-07-13T14:45:53;100142.19;;;29.52;46.31
75923;BME280;64602;47.542;19.090;2023-07-13T14:50:58;100152.31;;;29.23;47.15
75923;BME280;64602;47.542;19.090;2023-07-13T14:56:00;100153.84;;;29.20;46.99
75923;BME280;64602;47.542;19.090;2023-07-13T15:01:02;100168.56;;;29.13;46.92
75923;BME280;64602;47.542;19.090;2023-07-13T15:06:04;100159.16;;;28.95;46.73
75923;BME280;64602;47.542;19.090;2023-07-13T15:11:08;100138.63;;;28.76;47.18
75923;BME280;64602;47.542;19.090;2023-07-13T15:16:16;100142.25;;;28.81;48.16
75923;BME280;64602;47.542;19.090;2023-07-13T15:21:21;100165.69;;;28.72;47.72
75923;BME280;64602;47.542;19.090;2023-07-13T15:26:24;100170.69;;;28.56;47.65
75923;BME280;64602;47.542;19.090;2023-07-13T15:31:27;100170.22;;;28.50;48.50
75923;BME280;64602;47.542;19.090;2023-07-13T15:36:30;100161.19;;;28.34;48.74
75923;BME280;64602;47.542;19.090;2023-07-13T15:41:35;100168.59;;;28.23;48.40
75923;BME280;64602;47.542;19.090;2023-07-13T15:46:38;100159.72;;;28.13;48.69
75923;BME280;64602;47.542;19.090;2023-07-13T15:51:40;100140.03;;;28.03;48.65
75923;BME280;64602;47.542;19.090;2023-07-13T15:56:42;100131.53;;;27.92;48.85
75923;BME280;64602;47.542;19.090;2023-07-13T16:01:46;100119.50;;;27.88;49.09
75923;BME280;64602;47.542;19.090;2023-07-13T16:06:51;100129.88;;;27.91;48.95
75923;BME280;64602;47.542;19.090;2023-07-13T16:11:53;100148.63;;;27.90;48.73
75923;BME280;64602;47.542;19.090;2023-07-13T16:16:58;100168.50;;;27.89;48.72
75923;BME280;64602;47.542;19.090;2023-07-13T16:22:02;100181.22;;;27.86;48.97
75923;BME280;64602;47.542;19.090;2023-07-13T16:27:09;100191.06;;;27.80;48.95
75923;BME280;64602;47.542;19.090;2023-07-13T16:32:13;100177.75;;;27.70;49.33
75923;BME280;64602;47.542;19.090;2023-07-13T16:37:25;100178.31;;;27.56;48.93
75923;BME280;64602;47.542;19.090;2023-07-13T16:42:29;100172.31;;;27.54;49.44
75923;BME280;64602;47.542;19.090;2023-07-13T16:47:31;100166.94;;;27.42;49.31
75923;BME280;64602;47.542;19.090;2023-07-13T16:52:34;100154.91;;;27.38;49.67
75923;BME280;64602;47.542;19.090;2023-07-13T16:57:36;100155.72;;;27.38;50.28
75923;BME280;64602;47.542;19.090;2023-07-13T17:02:39;100163.56;;;27.33;49.83
75923;BME280;64602;47.542;19.090;2023-07-13T17:07:43;100156.75;;;27.30;50.06
75923;BME280;64602;47.542;19.090;2023-07-13T17:12:47;100159.31;;;27.39;51.59
75923;BME280;64602;47.542;19.090;2023-07-13T17:17:52;100152.06;;;27.34;51.40
75923;BME280;64602;47.542;19.090;2023-07-13T17:28:20;100146.16;;;27.16;50.88
75923;BME280;64602;47.542;19.090;2023-07-13T17:38:43;100148.69;;;27.02;52.22
75923;BME280;64602;47.542;19.090;2023-07-13T17:43:48;100152.94;;;26.96;53.39
75923;BME280;64602;47.542;19.090;2023-07-13T17:48:51;100179.41;;;26.86;52.80
75923;BME280;64602;47.542;19.090;2023-07-13T17:53:54;100169.81;;;26.64;51.92
75923;BME280;64602;47.542;19.090;2023-07-13T17:58:58;100182.50;;;26.61;51.87
75923;BME280;64602;47.542;19.090;2023-07-13T18:04:01;100175.84;;;26.50;51.13
75923;BME280;64602;47.542;19.090;2023-07-13T18:09:17;100183.88;;;26.36;50.28
75923;BME280;64602;47.542;19.090;2023-07-13T18:14:20;100186.72;;;26.20;50.08
75923;BME280;64602;47.542;19.090;2023-07-13T18:24:31;100194.84;;;25.93;50.09
75923;BME280;64602;47.542;19.090;2023-07-13T18:29:34;100205.66;;;25.83;50.40
75923;BME280;64602;47.542;19.090;2023-07-13T18:34:38;100191.53;;;25.72;51.68
75923;BME280;64602;47.542;19.090;2023-07-13T18:39:49;100210.34;;;25.63;52.11
75923;BME280;64602;47.542;19.090;2023-07-13T18:44:53;100212.41;;;25.50;51.67
75923;BME280;64602;47.542;19.090;2023-07-13T18:49:58;100224.50;;;25.42;51.73
75923;BME280;64602;47.542;19.090;2023-07-13T18:55:00;100222.69;;;25.33;50.99
75923;BME280;64602;47.542;19.090;2023-07-13T19:00:03;100244.44;;;25.31;49.76
75923;BME280;64602;47.542;19.090;2023-07-13T19:05:13;100236.28;;;25.23;50.64
75923;BME280;64602;47.542;19.090;2023-07-13T19:10:19;100235.06;;;25.08;50.44
75923;BME280;64602;47.542;19.090;2023-07-13T19:15:29;100239.84;;;24.95;50.11
75923;BME280;64602;47.542;19.090;2023-07-13T19:20:34;100251.25;;;24.78;49.89
75923;BME280;64602;47.542;19.090;2023-07-13T19:25:36;100262.97;;;24.59;50.31
75923;BME280;64602;47.542;19.090;2023-07-13T19:30:39;100254.19;;;24.44;51.21
75923;BME280;64602;47.542;19.090;2023-07-13T19:35:41;100265.06;;;24.37;51.19
75923;BME280;64602;47.542;19.090;2023-07-13T19:40:45;100271.06;;;24.27;51.38
75923;BME280;64602;47.542;19.090;2023-07-13T19:45:47;100285.28;;;24.13;51.95
75923;BME280;64602;47.542;19.090;2023-07-13T19:50:49;100298.22;;;24.09;51.74
75923;BME280;64602;47.542;19.090;2023-07-13T19:55:59;100304.22;;;24.11;51.43
75923;BME280;64602;47.542;19.090;2023-07-13T20:01:16;100310.81;;;24.19;51.85
75923;BME280;64602;47.542;19.090;2023-07-13T20:06:29;100308.97;;;24.23;51.86
75923;BME280;64602;47.542;19.090;2023-07-13T20:11:34;100317.53;;;24.18;51.02
75923;BME280;64602;47.542;19.090;2023-07-13T20:16:36;100320.75;;;24.20;52.22
75923;BME280;64602;47.542;19.090;2023-07-13T20:21:39;100325.97;;;24.21;53.34
75923;BME280;64602;47.542;19.090;2023-07-13T20:26:46;100325.84;;;24.30;54.11
75923;BME280;64602;47.542;19.090;2023-07-13T20:31:49;100326.19;;;24.28;56.27
75923;BME280;64602;47.542;19.090;2023-07-13T20:36:52;100334.75;;;24.36;57.18
75923;BME280;64602;47.542;19.090;2023-07-13T20:41:55;100329.06;;;24.32;59.33
75923;BME280;64602;47.542;19.090;2023-07-13T20:46:57;100332.44;;;24.38;58.99
